Hamptonville, North Carolina
Current Conditions -  °F | °C
As of 11:55 AM on Friday 28 Nov 2014 (Local Time) from KUKF Reporting Station
Clear Clear  
Wind Chill: 29°   Ceiling: Unl
Heat Index: 34°   Visibility: 10mi
Dew Point: 19°   Wind: 6mph
Humidity: 56%   Direction: 250°WSW
Pressure: 30.37"   Gusts: NA
Location:  36.1°N, 80.76°W
Report Text: KUKF 281655Z AUTO 25005KT 10SM CLR 01/M07 A3037 RMK AO2
Loading
Personal Weather Stations






























Interactive Weather Map New forecast layout! Learn more

10-Day Weather Forecast

Advertisements
Track Severe Weather on mobile